sensor_id;sensor_type;location;lat;lon;timestamp;pressure;altitude;pressure_sealevel;temperature;humidity
41898;BME280;27576;53.366;-1.498;2023-07-13T00:01:39;99807.31;;;14.71;100.00
41898;BME280;27576;53.366;-1.498;2023-07-13T00:04:04;99793.50;;;14.64;100.00
41898;BME280;27576;53.366;-1.498;2023-07-13T00:06:30;99797.03;;;14.60;100.00
41898;BME280;27576;53.366;-1.498;2023-07-13T00:08:58;99822.03;;;14.73;100.00
41898;BME280;27576;53.366;-1.498;2023-07-13T00:11:23;99804.78;;;14.65;100.00
41898;BME280;27576;53.366;-1.498;2023-07-13T00:13:50;99812.59;;;14.66;100.00
41898;BME280;27576;53.366;-1.498;2023-07-13T00:16:16;99807.41;;;14.63;100.00
41898;BME280;27576;53.366;-1.498;2023-07-13T00:18:41;99823.81;;;14.71;100.00
41898;BME280;27576;53.366;-1.498;2023-07-13T00:21:07;99812.59;;;14.65;100.00
41898;BME280;27576;53.366;-1.498;2023-07-13T00:23:37;99818.53;;;14.76;100.00
41898;BME280;27576;53.366;-1.498;2023-07-13T00:26:04;99810.75;;;14.75;100.00
41898;BME280;27576;53.366;-1.498;2023-07-13T00:28:31;99792.63;;;14.64;100.00
41898;BME280;27576;53.366;-1.498;2023-07-13T00:30:57;99799.53;;;14.68;100.00
41898;BME280;27576;53.366;-1.498;2023-07-13T00:33:22;99817.56;;;14.83;100.00
41898;BME280;27576;53.366;-1.498;2023-07-13T00:35:49;99806.38;;;14.73;100.00
41898;BME280;27576;53.366;-1.498;2023-07-13T00:38:15;99815.00;;;14.82;100.00
41898;BME280;27576;53.366;-1.498;2023-07-13T00:40:40;99814.09;;;14.81;100.00
41898;BME280;27576;53.366;-1.498;2023-07-13T00:43:12;99827.03;;;14.89;100.00
41898;BME280;27576;53.366;-1.498;2023-07-13T00:48:15;99822.81;;;14.82;100.00
41898;BME280;27576;53.366;-1.498;2023-07-13T00:50:43;99795.16;;;14.70;100.00
41898;BME280;27576;53.366;-1.498;2023-07-13T00:53:10;99796.13;;;14.61;100.00
41898;BME280;27576;53.366;-1.498;2023-07-13T00:55:36;99830.69;;;14.79;100.00
41898;BME280;27576;53.366;-1.498;2023-07-13T00:58:04;99786.59;;;14.60;100.00
41898;BME280;27576;53.366;-1.498;2023-07-13T01:00:34;99790.09;;;14.59;100.00
41898;BME280;27576;53.366;-1.498;2023-07-13T01:03:00;99818.56;;;14.75;100.00
41898;BME280;27576;53.366;-1.498;2023-07-13T01:05:30;99816.84;;;14.72;100.00
41898;BME280;27576;53.366;-1.498;2023-07-13T01:07:57;99808.31;;;14.62;100.00
41898;BME280;27576;53.366;-1.498;2023-07-13T01:10:25;99806.63;;;14.58;100.00
41898;BME280;27576;53.366;-1.498;2023-07-13T01:12:50;99806.72;;;14.49;100.00
41898;BME280;27576;53.366;-1.498;2023-07-13T01:15:53;99848.25;;;14.64;100.00
41898;BME280;27576;53.366;-1.498;2023-07-13T01:18:25;99832.63;;;14.61;100.00
41898;BME280;27576;53.366;-1.498;2023-07-13T01:20:58;99841.31;;;14.63;100.00
41898;BME280;27576;53.366;-1.498;2023-07-13T01:23:26;99848.28;;;14.63;100.00
41898;BME280;27576;53.366;-1.498;2023-07-13T01:25:52;99850.84;;;14.64;100.00
41898;BME280;27576;53.366;-1.498;2023-07-13T01:28:18;99847.41;;;14.62;100.00
41898;BME280;27576;53.366;-1.498;2023-07-13T01:30:46;99837.94;;;14.55;100.00
41898;BME280;27576;53.366;-1.498;2023-07-13T01:33:16;99856.16;;;14.58;100.00
41898;BME280;27576;53.366;-1.498;2023-07-13T01:35:42;99836.25;;;14.51;100.00
41898;BME280;27576;53.366;-1.498;2023-07-13T01:38:09;99848.38;;;14.55;100.00
41898;BME280;27576;53.366;-1.498;2023-07-13T01:40:36;99846.69;;;14.51;100.00
41898;BME280;27576;53.366;-1.498;2023-07-13T01:43:02;99846.69;;;14.51;100.00
41898;BME280;27576;53.366;-1.498;2023-07-13T01:45:28;99824.16;;;14.41;100.00
41898;BME280;27576;53.366;-1.498;2023-07-13T01:47:53;99837.13;;;14.48;100.00
41898;BME280;27576;53.366;-1.498;2023-07-13T01:50:18;99841.50;;;14.45;100.00
41898;BME280;27576;53.366;-1.498;2023-07-13T01:52:44;99832.91;;;14.37;100.00
41898;BME280;27576;53.366;-1.498;2023-07-13T01:55:09;99840.66;;;14.43;100.00
41898;BME280;27576;53.366;-1.498;2023-07-13T01:57:35;99849.34;;;14.43;100.00
41898;BME280;27576;53.366;-1.498;2023-07-13T02:00:03;99832.91;;;14.37;100.00
41898;BME280;27576;53.366;-1.498;2023-07-13T02:02:30;99808.84;;;14.16;100.00
41898;BME280;27576;53.366;-1.498;2023-07-13T02:04:55;99836.47;;;14.31;100.00
41898;BME280;27576;53.366;-1.498;2023-07-13T02:07:21;99844.28;;;14.31;100.00
41898;BME280;27576;53.366;-1.498;2023-07-13T02:09:46;99824.47;;;14.16;100.00
41898;BME280;27576;53.366;-1.498;2023-07-13T02:12:12;99829.59;;;14.22;100.00
41898;BME280;27576;53.366;-1.498;2023-07-13T02:14:37;99839.97;;;14.29;100.00
41898;BME280;27576;53.366;-1.498;2023-07-13T02:17:03;99809.72;;;14.14;100.00
41898;BME280;27576;53.366;-1.498;2023-07-13T02:19:29;99825.28;;;14.23;100.00
41898;BME280;27576;53.366;-1.498;2023-07-13T02:21:54;99806.28;;;14.10;100.00
41898;BME280;27576;53.366;-1.498;2023-07-13T02:24:20;99820.97;;;14.19;100.00
41898;BME280;27576;53.366;-1.498;2023-07-13T02:26:46;99832.19;;;14.24;100.00
41898;BME280;27576;53.366;-1.498;2023-07-13T02:29:11;99812.28;;;14.17;100.00
41898;BME280;27576;53.366;-1.498;2023-07-13T02:31:37;99799.38;;;14.08;100.00
41898;BME280;27576;53.366;-1.498;2023-07-13T02:34:03;99833.09;;;14.23;100.00
41898;BME280;27576;53.366;-1.498;2023-07-13T02:36:30;99829.63;;;14.21;100.00
41898;BME280;27576;53.366;-1.498;2023-07-13T02:38:55;99827.06;;;14.16;100.00
41898;BME280;27576;53.366;-1.498;2023-07-13T02:41:20;99794.31;;;13.95;100.00
41898;BME280;27576;53.366;-1.498;2023-07-13T02:43:48;99786.50;;;13.94;100.00
41898;BME280;27576;53.366;-1.498;2023-07-13T02:46:13;99817.59;;;14.09;100.00
41898;BME280;27576;53.366;-1.498;2023-07-13T02:48:39;99824.50;;;14.13;100.00
41898;BME280;27576;53.366;-1.498;2023-07-13T02:51:04;99816.72;;;14.09;100.00
41898;BME280;27576;53.366;-1.498;2023-07-13T02:53:30;99814.09;;;14.10;100.00
41898;BME280;27576;53.366;-1.498;2023-07-13T02:55:55;99794.34;;;13.91;100.00
41898;BME280;27576;53.366;-1.498;2023-07-13T02:58:21;99815.97;;;13.99;100.00
41898;BME280;27576;53.366;-1.498;2023-07-13T03:00:48;99830.63;;;14.06;100.00
41898;BME280;27576;53.366;-1.498;2023-07-13T03:03:15;99832.38;;;14.06;100.00
41898;BME280;27576;53.366;-1.498;2023-07-13T03:05:43;99838.50;;;14.03;100.00
41898;BME280;27576;53.366;-1.498;2023-07-13T03:08:11;99833.34;;;13.97;100.00
41898;BME280;27576;53.366;-1.498;2023-07-13T03:10:36;99848.94;;;14.03;100.00
41898;BME280;27576;53.366;-1.498;2023-07-13T03:13:02;99833.38;;;13.94;100.00
41898;BME280;27576;53.366;-1.498;2023-07-13T03:15:28;99804.88;;;13.79;100.00
41898;BME280;27576;53.366;-1.498;2023-07-13T03:17:54;99841.97;;;14.02;100.00
41898;BME280;27576;53.366;-1.498;2023-07-13T03:20:19;99841.13;;;14.02;100.00
41898;BME280;27576;53.366;-1.498;2023-07-13T03:22:45;99835.94;;;13.98;100.00
41898;BME280;27576;53.366;-1.498;2023-07-13T03:25:11;99816.09;;;13.88;100.00
41898;BME280;27576;53.366;-1.498;2023-07-13T03:27:37;99827.28;;;13.96;100.00
41898;BME280;27576;53.366;-1.498;2023-07-13T03:30:04;99805.75;;;13.81;100.00
41898;BME280;27576;53.366;-1.498;2023-07-13T03:32:29;99823.03;;;13.88;100.00
41898;BME280;27576;53.366;-1.498;2023-07-13T03:34:55;99842.94;;;13.93;100.00
41898;BME280;27576;53.366;-1.498;2023-07-13T03:37:20;99841.22;;;13.92;100.00
41898;BME280;27576;53.366;-1.498;2023-07-13T03:39:46;99830.88;;;13.83;100.00
41898;BME280;27576;53.366;-1.498;2023-07-13T03:42:11;99852.56;;;13.88;100.00
41898;BME280;27576;53.366;-1.498;2023-07-13T03:44:39;99813.72;;;13.62;100.00
41898;BME280;27576;53.366;-1.498;2023-07-13T03:47:05;99811.97;;;13.64;100.00
41898;BME280;27576;53.366;-1.498;2023-07-13T03:49:31;99856.91;;;13.88;100.00
41898;BME280;27576;53.366;-1.498;2023-07-13T03:51:56;99828.38;;;13.72;100.00
41898;BME280;27576;53.366;-1.498;2023-07-13T03:54:22;99836.22;;;13.69;100.00
41898;BME280;27576;53.366;-1.498;2023-07-13T03:56:47;99806.88;;;13.50;100.00
41898;BME280;27576;53.366;-1.498;2023-07-13T03:59:13;99857.84;;;13.78;100.00
41898;BME280;27576;53.366;-1.498;2023-07-13T04:01:38;99851.81;;;13.75;100.00
41898;BME280;27576;53.366;-1.498;2023-07-13T04:04:04;99826.81;;;13.56;100.00
41898;BME280;27576;53.366;-1.498;2023-07-13T04:06:30;99852.69;;;13.71;100.00
41898;BME280;27576;53.366;-1.498;2023-07-13T04:08:58;99858.78;;;13.67;100.00
41898;BME280;27576;53.366;-1.498;2023-07-13T04:11:26;99857.09;;;13.68;100.00
41898;BME280;27576;53.366;-1.498;2023-07-13T04:13:52;99854.53;;;13.60;100.00
41898;BME280;27576;53.366;-1.498;2023-07-13T04:16:18;99871.81;;;13.67;100.00
41898;BME280;27576;53.366;-1.498;2023-07-13T04:18:45;99877.00;;;13.67;100.00
41898;BME280;27576;53.366;-1.498;2023-07-13T04:21:11;99870.94;;;13.70;100.00
41898;BME280;27576;53.366;-1.498;2023-07-13T04:23:37;99883.06;;;13.75;100.00
41898;BME280;27576;53.366;-1.498;2023-07-13T04:26:02;99881.25;;;13.79;100.00
41898;BME280;27576;53.366;-1.498;2023-07-13T04:28:28;99886.44;;;13.84;100.00
41898;BME280;27576;53.366;-1.498;2023-07-13T04:30:53;99866.56;;;13.73;100.00
41898;BME280;27576;53.366;-1.498;2023-07-13T04:33:19;99882.91;;;13.92;100.00
41898;BME280;27576;53.366;-1.498;2023-07-13T04:35:49;99883.75;;;13.93;100.00
41898;BME280;27576;53.366;-1.498;2023-07-13T04:38:14;99883.72;;;13.96;100.00
41898;BME280;27576;53.366;-1.498;2023-07-13T04:40:44;99861.31;;;13.80;100.00
41898;BME280;27576;53.366;-1.498;2023-07-13T04:43:10;99890.63;;;14.03;100.00
41898;BME280;27576;53.366;-1.498;2023-07-13T04:45:36;99872.44;;;13.97;100.00
41898;BME280;27576;53.366;-1.498;2023-07-13T04:48:01;99860.34;;;13.90;100.00
41898;BME280;27576;53.366;-1.498;2023-07-13T04:50:27;99891.41;;;14.07;100.00
41898;BME280;27576;53.366;-1.498;2023-07-13T04:52:52;99871.56;;;13.95;100.00
41898;BME280;27576;53.366;-1.498;2023-07-13T04:55:19;99892.25;;;14.10;100.00
41898;BME280;27576;53.366;-1.498;2023-07-13T04:57:45;99907.03;;;14.11;100.00
41898;BME280;27576;53.366;-1.498;2023-07-13T05:00:11;99891.47;;;14.04;100.00
41898;BME280;27576;53.366;-1.498;2023-07-13T05:02:38;99894.94;;;14.03;100.00
41898;BME280;27576;53.366;-1.498;2023-07-13T05:05:05;99906.19;;;14.08;100.00
41898;BME280;27576;53.366;-1.498;2023-07-13T05:07:31;99907.88;;;14.10;100.00
41898;BME280;27576;53.366;-1.498;2023-07-13T05:09:59;99917.47;;;14.08;100.00
41898;BME280;27576;53.366;-1.498;2023-07-13T05:12:24;99905.34;;;14.07;100.00
41898;BME280;27576;53.366;-1.498;2023-07-13T05:14:50;99894.19;;;13.91;100.00
41898;BME280;27576;53.366;-1.498;2023-07-13T05:17:15;99918.38;;;14.07;100.00
41898;BME280;27576;53.366;-1.498;2023-07-13T05:19:41;99919.19;;;14.09;100.00
41898;BME280;27576;53.366;-1.498;2023-07-13T05:22:06;99904.47;;;14.05;100.00
41898;BME280;27576;53.366;-1.498;2023-07-13T05:24:32;99921.78;;;14.11;100.00
41898;BME280;27576;53.366;-1.498;2023-07-13T05:26:57;99924.38;;;14.11;100.00
41898;BME280;27576;53.366;-1.498;2023-07-13T05:29:23;99919.25;;;14.05;100.00
41898;BME280;27576;53.366;-1.498;2023-07-13T05:31:49;99921.81;;;14.09;100.00
41898;BME280;27576;53.366;-1.498;2023-07-13T05:34:14;99933.06;;;14.13;100.00
41898;BME280;27576;53.366;-1.498;2023-07-13T05:36:40;99914.00;;;14.08;100.00
41898;BME280;27576;53.366;-1.498;2023-07-13T05:39:06;99940.00;;;14.14;100.00
41898;BME280;27576;53.366;-1.498;2023-07-13T05:41:31;99933.94;;;14.13;100.00
41898;BME280;27576;53.366;-1.498;2023-07-13T05:43:57;99938.28;;;14.13;100.00
41898;BME280;27576;53.366;-1.498;2023-07-13T05:46:22;99944.34;;;14.13;100.00
41898;BME280;27576;53.366;-1.498;2023-07-13T05:48:48;99911.47;;;13.98;100.00
41898;BME280;27576;53.366;-1.498;2023-07-13T05:51:13;99946.06;;;14.14;100.00
41898;BME280;27576;53.366;-1.498;2023-07-13T05:53:39;99926.19;;;14.03;100.00
41898;BME280;27576;53.366;-1.498;2023-07-13T05:56:04;99947.75;;;14.21;100.00
41898;BME280;27576;53.366;-1.498;2023-07-13T05:58:30;99933.03;;;14.14;100.00
41898;BME280;27576;53.366;-1.498;2023-07-13T06:01:09;99926.97;;;14.15;100.00
41898;BME280;27576;53.366;-1.498;2023-07-13T06:03:35;99966.66;;;14.42;100.00
41898;BME280;27576;53.366;-1.498;2023-07-13T06:06:04;99959.66;;;14.50;100.00
41898;BME280;27576;53.366;-1.498;2023-07-13T06:08:29;99970.00;;;14.58;100.00
41898;BME280;27576;53.366;-1.498;2023-07-13T06:11:01;99970.84;;;14.61;100.00
41898;BME280;27576;53.366;-1.498;2023-07-13T06:13:27;99951.00;;;14.46;100.00
41898;BME280;27576;53.366;-1.498;2023-07-13T06:15:52;99975.19;;;14.62;100.00
41898;BME280;27576;53.366;-1.498;2023-07-13T06:18:18;99960.47;;;14.54;100.00
41898;BME280;27576;53.366;-1.498;2023-07-13T06:20:43;99988.94;;;14.73;100.00
41898;BME280;27576;53.366;-1.498;2023-07-13T06:23:08;99988.03;;;14.79;100.00
41898;BME280;27576;53.366;-1.498;2023-07-13T06:25:34;99987.25;;;14.74;100.00
41898;BME280;27576;53.366;-1.498;2023-07-13T06:27:59;99957.81;;;14.63;100.00
41898;BME280;27576;53.366;-1.498;2023-07-13T06:30:25;99980.28;;;14.75;100.00
41898;BME280;27576;53.366;-1.498;2023-07-13T06:32:51;99962.16;;;14.61;100.00
41898;BME280;27576;53.366;-1.498;2023-07-13T06:35:16;100000.13;;;14.86;100.00
41898;BME280;27576;53.366;-1.498;2023-07-13T06:37:41;100001.00;;;14.87;100.00
41898;BME280;27576;53.366;-1.498;2023-07-13T06:40:07;99988.00;;;14.82;100.00
41898;BME280;27576;53.366;-1.498;2023-07-13T06:42:33;99976.72;;;14.82;100.00
41898;BME280;27576;53.366;-1.498;2023-07-13T06:44:58;99961.94;;;14.81;100.00
41898;BME280;27576;53.366;-1.498;2023-07-13T06:47:23;100006.72;;;15.18;100.00
41898;BME280;27576;53.366;-1.498;2023-07-13T06:49:49;100001.34;;;15.29;100.00
41898;BME280;27576;53.366;-1.498;2023-07-13T06:52:14;99995.22;;;15.33;100.00
41898;BME280;27576;53.366;-1.498;2023-07-13T06:54:40;100005.28;;;15.60;100.00
41898;BME280;27576;53.366;-1.498;2023-07-13T06:57:05;100013.00;;;15.73;100.00
41898;BME280;27576;53.366;-1.498;2023-07-13T06:59:30;100009.28;;;15.86;100.00
41898;BME280;27576;53.366;-1.498;2023-07-13T07:01:56;100009.22;;;15.92;100.00
41898;BME280;27576;53.366;-1.498;2023-07-13T07:04:21;99970.28;;;15.74;100.00
41898;BME280;27576;53.366;-1.498;2023-07-13T07:06:47;100001.25;;;15.98;100.00
41898;BME280;27576;53.366;-1.498;2023-07-13T07:09:12;99972.69;;;15.87;100.00
41898;BME280;27576;53.366;-1.498;2023-07-13T07:11:38;99993.31;;;16.06;100.00
41898;BME280;27576;53.366;-1.498;2023-07-13T07:14:04;100024.50;;;16.16;100.00
41898;BME280;27576;53.366;-1.498;2023-07-13T07:16:30;100018.50;;;16.11;99.99
41898;BME280;27576;53.366;-1.498;2023-07-13T07:18:55;100002.13;;;15.99;99.51
41898;BME280;27576;53.366;-1.498;2023-07-13T07:21:20;100023.72;;;16.11;99.84
41898;BME280;27576;53.366;-1.498;2023-07-13T07:23:48;100020.91;;;16.22;100.00
41898;BME280;27576;53.366;-1.498;2023-07-13T07:26:13;100016.25;;;16.41;100.00
41898;BME280;27576;53.366;-1.498;2023-07-13T07:28:39;99996.22;;;16.40;98.39
41898;BME280;27576;53.366;-1.498;2023-07-13T07:31:04;100026.38;;;16.59;95.88
41898;BME280;27576;53.366;-1.498;2023-07-13T07:33:29;100034.25;;;16.59;96.22
41898;BME280;27576;53.366;-1.498;2023-07-13T07:35:55;100016.25;;;16.41;95.29
41898;BME280;27576;53.366;-1.498;2023-07-13T07:38:20;100044.75;;;16.56;95.13
41898;BME280;27576;53.366;-1.498;2023-07-13T07:40:45;100047.44;;;16.50;94.98
41898;BME280;27576;53.366;-1.498;2023-07-13T07:43:12;100030.34;;;16.31;96.39
41898;BME280;27576;53.366;-1.498;2023-07-13T07:45:38;100052.75;;;16.47;94.20
41898;BME280;27576;53.366;-1.498;2023-07-13T07:48:04;100031.28;;;16.28;94.49
41898;BME280;27576;53.366;-1.498;2023-07-13T07:50:30;100053.63;;;16.46;95.86
41898;BME280;27576;53.366;-1.498;2023-07-13T07:52:56;100017.34;;;16.26;95.06
41898;BME280;27576;53.366;-1.498;2023-07-13T07:55:22;100058.81;;;16.51;96.57
41898;BME280;27576;53.366;-1.498;2023-07-13T07:57:48;100059.53;;;16.59;96.07
41898;BME280;27576;53.366;-1.498;2023-07-13T08:00:14;100058.38;;;16.77;96.72
41898;BME280;27576;53.366;-1.498;2023-07-13T08:02:40;100043.34;;;16.88;95.14
41898;BME280;27576;53.366;-1.498;2023-07-13T08:05:08;100057.66;;;17.15;94.77
41898;BME280;27576;53.366;-1.498;2023-07-13T08:07:33;100053.66;;;17.39;94.10
41898;BME280;27576;53.366;-1.498;2023-07-13T08:09:59;100044.00;;;17.42;88.62
41898;BME280;27576;53.366;-1.498;2023-07-13T08:12:24;100062.28;;;17.46;87.32
41898;BME280;27576;53.366;-1.498;2023-07-13T08:14:50;100033.06;;;17.22;88.51
41898;BME280;27576;53.366;-1.498;2023-07-13T08:17:22;100031.63;;;17.07;86.54
41898;BME280;27576;53.366;-1.498;2023-07-13T08:19:47;100052.25;;;17.23;88.86
41898;BME280;27576;53.366;-1.498;2023-07-13T08:22:12;100053.22;;;17.18;86.74
41898;BME280;27576;53.366;-1.498;2023-07-13T08:24:38;100062.09;;;17.11;86.60
41898;BME280;27576;53.366;-1.498;2023-07-13T08:27:04;100043.91;;;17.04;85.64
41898;BME280;27576;53.366;-1.498;2023-07-13T08:29:30;100069.78;;;17.19;85.44
41898;BME280;27576;53.366;-1.498;2023-07-13T08:31:59;100059.31;;;17.19;84.12
41898;BME280;27576;53.366;-1.498;2023-07-13T08:34:24;100041.19;;;17.10;84.45
41898;BME280;27576;53.366;-1.498;2023-07-13T08:36:50;100037.44;;;17.22;85.90
41898;BME280;27576;53.366;-1.498;2023-07-13T08:39:15;100059.56;;;17.50;83.66
41898;BME280;27576;53.366;-1.498;2023-07-13T08:41:40;100043.78;;;17.53;83.45
41898;BME280;27576;53.366;-1.498;2023-07-13T08:44:15;100060.59;;;17.85;79.69
41898;BME280;27576;53.366;-1.498;2023-07-13T08:46:45;100017.53;;;17.55;79.21
41898;BME280;27576;53.366;-1.498;2023-07-13T08:49:15;100064.16;;;17.81;76.53
41898;BME280;27576;53.366;-1.498;2023-07-13T08:51:50;100068.63;;;17.76;78.18
41898;BME280;27576;53.366;-1.498;2023-07-13T08:54:37;100066.06;;;17.73;73.77
41898;BME280;27576;53.366;-1.498;2023-07-13T08:57:12;100059.88;;;17.77;73.43
41898;BME280;27576;53.366;-1.498;2023-07-13T08:59:38;100066.75;;;17.82;74.38
41898;BME280;27576;53.366;-1.498;2023-07-13T09:02:25;100063.25;;;17.82;76.62
41898;BME280;27576;53.366;-1.498;2023-07-13T09:10:30;100059.66;;;18.25;71.34
41898;BME280;27576;53.366;-1.498;2023-07-13T09:15:44;100046.81;;;18.48;70.04
41898;BME280;27576;53.366;-1.498;2023-07-13T09:20:57;100050.34;;;18.81;70.34
41898;BME280;27576;53.366;-1.498;2023-07-13T09:23:27;100046.31;;;19.02;72.60
41898;BME280;27576;53.366;-1.498;2023-07-13T09:26:06;100013.91;;;19.02;67.76
41898;BME280;27576;53.366;-1.498;2023-07-13T09:28:43;100045.56;;;19.28;67.16
41898;BME280;27576;53.366;-1.498;2023-07-13T09:31:30;100054.44;;;19.24;64.78
41898;BME280;27576;53.366;-1.498;2023-07-13T09:33:59;100034.69;;;19.11;65.93
41898;BME280;27576;53.366;-1.498;2023-07-13T09:36:28;100056.06;;;19.28;66.18
41898;BME280;27576;53.366;-1.498;2023-07-13T09:39:03;100057.34;;;19.45;67.38
41898;BME280;27576;53.366;-1.498;2023-07-13T09:46:26;100061.22;;;19.63;63.40
41898;BME280;27576;53.366;-1.498;2023-07-13T09:48:51;100054.16;;;19.65;62.84
41898;BME280;27576;53.366;-1.498;2023-07-13T09:51:17;100056.22;;;19.53;59.21
41898;BME280;27576;53.366;-1.498;2023-07-13T09:53:43;100050.28;;;19.47;59.50
41898;BME280;27576;53.366;-1.498;2023-07-13T09:56:23;100050.13;;;19.51;62.50
41898;BME280;27576;53.366;-1.498;2023-07-13T09:58:49;100066.84;;;19.49;59.46
41898;BME280;27576;53.366;-1.498;2023-07-13T10:01:15;100039.72;;;19.48;62.29
41898;BME280;27576;53.366;-1.498;2023-07-13T10:03:52;100070.66;;;19.70;58.16
41898;BME280;27576;53.366;-1.498;2023-07-13T10:06:20;100066.97;;;19.75;60.30
41898;BME280;27576;53.366;-1.498;2023-07-13T10:08:48;100062.94;;;19.93;63.51
41898;BME280;27576;53.366;-1.498;2023-07-13T10:11:26;100075.72;;;20.04;60.14
41898;BME280;27576;53.366;-1.498;2023-07-13T10:13:53;100073.16;;;20.02;61.06
41898;BME280;27576;53.366;-1.498;2023-07-13T10:16:21;100066.78;;;20.09;61.17
41898;BME280;27576;53.366;-1.498;2023-07-13T10:18:59;100078.94;;;20.14;58.86
41898;BME280;27576;53.366;-1.498;2023-07-13T10:21:30;100083.97;;;19.93;58.75
41898;BME280;27576;53.366;-1.498;2023-07-13T10:24:06;100079.97;;;19.80;61.92
41898;BME280;27576;53.366;-1.498;2023-07-13T10:26:48;100054.47;;;19.54;61.09
41898;BME280;27576;53.366;-1.498;2023-07-13T10:29:16;100071.53;;;19.69;61.38
41898;BME280;27576;53.366;-1.498;2023-07-13T10:31:41;100079.44;;;19.69;60.38
41898;BME280;27576;53.366;-1.498;2023-07-13T10:34:11;100077.06;;;19.59;60.67
41898;BME280;27576;53.366;-1.498;2023-07-13T10:36:46;100073.72;;;19.54;62.77
41898;BME280;27576;53.366;-1.498;2023-07-13T10:39:21;100072.47;;;19.68;61.85
41898;BME280;27576;53.366;-1.498;2023-07-13T10:41:53;100080.19;;;19.74;60.42
41898;BME280;27576;53.366;-1.498;2023-07-13T10:44:28;100084.06;;;19.90;64.90
41898;BME280;27576;53.366;-1.498;2023-07-13T10:47:06;100080.75;;;20.11;60.56
41898;BME280;27576;53.366;-1.498;2023-07-13T10:49:34;100080.06;;;20.33;61.05
41898;BME280;27576;53.366;-1.498;2023-07-13T10:52:01;100068.28;;;20.45;60.72
41898;BME280;27576;53.366;-1.498;2023-07-13T10:54:32;100081.56;;;20.68;58.97
41898;BME280;27576;53.366;-1.498;2023-07-13T10:57:19;100082.84;;;20.56;57.37
41898;BME280;27576;53.366;-1.498;2023-07-13T10:59:48;100075.31;;;20.71;58.73
41898;BME280;27576;53.366;-1.498;2023-07-13T11:02:24;100074.63;;;20.66;56.49
41898;BME280;27576;53.366;-1.498;2023-07-13T11:04:53;100077.50;;;20.84;57.51
41898;BME280;27576;53.366;-1.498;2023-07-13T11:07:21;100079.00;;;20.92;55.94
41898;BME280;27576;53.366;-1.498;2023-07-13T11:09:59;100079.94;;;21.14;54.59
41898;BME280;27576;53.366;-1.498;2023-07-13T11:19:53;100080.25;;;21.55;58.03
41898;BME280;27576;53.366;-1.498;2023-07-13T11:22:24;100077.91;;;21.71;54.61
41898;BME280;27576;53.366;-1.498;2023-07-13T11:24:59;100071.75;;;21.70;52.82
41898;BME280;27576;53.366;-1.498;2023-07-13T11:27:42;100055.22;;;21.65;55.12
41898;BME280;27576;53.366;-1.498;2023-07-13T11:36:16;100074.25;;;21.97;52.58
41898;BME280;27576;53.366;-1.498;2023-07-13T11:38:57;100077.44;;;21.60;52.78
41898;BME280;27576;53.366;-1.498;2023-07-13T11:41:30;100064.38;;;21.33;51.17
41898;BME280;27576;53.366;-1.498;2023-07-13T11:44:14;100075.56;;;21.40;50.42
41898;BME280;27576;53.366;-1.498;2023-07-13T11:46:48;100026.84;;;21.25;49.73
41898;BME280;27576;53.366;-1.498;2023-07-13T11:49:19;100077.66;;;21.53;52.35
41898;BME280;27576;53.366;-1.498;2023-07-13T11:51:45;100067.09;;;21.53;52.09
41898;BME280;27576;53.366;-1.498;2023-07-13T11:56:49;100054.53;;;21.84;52.42
41898;BME280;27576;53.366;-1.498;2023-07-13T11:59:15;100058.59;;;21.92;51.24
41898;BME280;27576;53.366;-1.498;2023-07-13T12:01:46;100065.22;;;22.02;51.34
41898;BME280;27576;53.366;-1.498;2023-07-13T12:04:41;100059.75;;;22.07;51.83
41898;BME280;27576;53.366;-1.498;2023-07-13T12:07:15;100039.19;;;22.17;55.38
41898;BME280;27576;53.366;-1.498;2023-07-13T12:09:42;100054.50;;;22.29;50.55
41898;BME280;27576;53.366;-1.498;2023-07-13T12:12:12;100062.47;;;22.49;48.30
41898;BME280;27576;53.366;-1.498;2023-07-13T12:14:38;100045.47;;;22.55;49.88
41898;BME280;27576;53.366;-1.498;2023-07-13T12:17:12;100053.78;;;22.68;48.49
41898;BME280;27576;53.366;-1.498;2023-07-13T12:19:38;100047.22;;;22.76;51.43
41898;BME280;27576;53.366;-1.498;2023-07-13T12:22:04;100031.19;;;22.61;48.39
41898;BME280;27576;53.366;-1.498;2023-07-13T12:24:30;100041.47;;;22.67;49.39
41898;BME280;27576;53.366;-1.498;2023-07-13T12:27:01;100044.75;;;22.51;49.15
41898;BME280;27576;53.366;-1.498;2023-07-13T12:29:27;100041.22;;;22.73;52.94
41898;BME280;27576;53.366;-1.498;2023-07-13T12:31:53;100041.31;;;22.90;54.12
41898;BME280;27576;53.366;-1.498;2023-07-13T12:34:22;100044.72;;;22.94;53.47
41898;BME280;27576;53.366;-1.498;2023-07-13T12:36:50;100041.81;;;22.79;51.98
41898;BME280;27576;53.366;-1.498;2023-07-13T12:39:22;100044.44;;;22.59;52.85
41898;BME280;27576;53.366;-1.498;2023-07-13T12:41:50;100048.72;;;22.41;53.50
41898;BME280;27576;53.366;-1.498;2023-07-13T12:44:31;100021.75;;;22.11;53.20
41898;BME280;27576;53.366;-1.498;2023-07-13T12:47:06;100040.25;;;22.33;51.66
41898;BME280;27576;53.366;-1.498;2023-07-13T12:49:41;100045.97;;;22.44;53.46
41898;BME280;27576;53.366;-1.498;2023-07-13T12:52:15;100032.16;;;22.58;51.62
41898;BME280;27576;53.366;-1.498;2023-07-13T12:54:41;100008.38;;;22.58;52.39
41898;BME280;27576;53.366;-1.498;2023-07-13T12:57:13;100012.00;;;22.55;51.08
41898;BME280;27576;53.366;-1.498;2023-07-13T12:59:42;100026.09;;;22.56;51.70
41898;BME280;27576;53.366;-1.498;2023-07-13T13:02:26;100036.19;;;22.46;54.21
41898;BME280;27576;53.366;-1.498;2023-07-13T13:04:52;100021.50;;;22.39;51.50
41898;BME280;27576;53.366;-1.498;2023-07-13T13:07:20;100010.13;;;22.79;53.83
41898;BME280;27576;53.366;-1.498;2023-07-13T13:09:45;99992.47;;;23.57;52.74
41898;BME280;27576;53.366;-1.498;2023-07-13T13:12:12;100006.06;;;24.58;52.30
41898;BME280;27576;53.366;-1.498;2023-07-13T13:14:37;100006.13;;;25.07;50.57
41898;BME280;27576;53.366;-1.498;2023-07-13T13:17:30;100001.59;;;24.93;49.43
41898;BME280;27576;53.366;-1.498;2023-07-13T13:19:56;100013.94;;;24.42;50.04